Terminal Aerodrome Forecast
Issued by NWS Portland, OR

Home | Current Version | Previous Version | Text Only | Print | Product List | Glossary On
Versions: 1 2 3 4 5 6 7 8 9 10 11 12 13 14 15 16 17 18 19 20 21 22 23 24 25 26 27 28
000
FTUS46 KPQR 012343
TAFHIO
TAF
KHIO 012343Z 0200/0224 36005KT P6SM SCT050
     FM020600 VRB02KT P6SM SCT050 BKN070
     FM021400 VRB03KT P6SM BKN015
     FM021900 34007KT P6SM SCT035=

USA.gov is the U.S. government's official web portal to all federal, state and local government web resources and services.